sensor_id;sensor_type;location;lat;lon;timestamp;pressure;altitude;pressure_sealevel;temperature;humidity
80699;BME280;70062;51.658;5.658;2023-07-13T00:01:12;101285.66;;;15.59;62.83
80699;BME280;70062;51.658;5.658;2023-07-13T00:03:38;101285.42;;;15.53;63.02
80699;BME280;70062;51.658;5.658;2023-07-13T00:06:07;101286.08;;;15.48;63.29
80699;BME280;70062;51.658;5.658;2023-07-13T00:08:33;101289.29;;;15.41;63.56
80699;BME280;70062;51.658;5.658;2023-07-13T00:11:00;101294.83;;;15.36;63.59
80699;BME280;70062;51.658;5.658;2023-07-13T00:13:25;101294.03;;;15.33;63.86
80699;BME280;70062;51.658;5.658;2023-07-13T00:15:51;101296.05;;;15.32;64.10
80699;BME280;70062;51.658;5.658;2023-07-13T00:18:19;101294.51;;;15.32;64.15
80699;BME280;70062;51.658;5.658;2023-07-13T00:20:44;101292.11;;;15.33;64.26
80699;BME280;70062;51.658;5.658;2023-07-13T00:23:10;101289.70;;;15.33;64.27
80699;BME280;70062;51.658;5.658;2023-07-13T00:25:35;101286.07;;;15.33;64.29
80699;BME280;70062;51.658;5.658;2023-07-13T00:28:01;101287.56;;;15.31;64.38
80699;BME280;70062;51.658;5.658;2023-07-13T00:30:27;101294.89;;;15.28;64.52
80699;BME280;70062;51.658;5.658;2023-07-13T00:32:52;101298.89;;;15.24;64.71
80699;BME280;70062;51.658;5.658;2023-07-13T00:35:18;101295.77;;;15.20;64.94
80699;BME280;70062;51.658;5.658;2023-07-13T00:37:44;101289.02;;;15.15;65.08
80699;BME280;70062;51.658;5.658;2023-07-13T00:40:11;101282.52;;;15.07;65.19
80699;BME280;70062;51.658;5.658;2023-07-13T00:42:38;101284.50;;;15.00;65.34
80699;BME280;70062;51.658;5.658;2023-07-13T00:47:39;101287.20;;;14.85;65.85
80699;BME280;70062;51.658;5.658;2023-07-13T00:50:09;101289.89;;;14.79;65.93
80699;BME280;70062;51.658;5.658;2023-07-13T00:52:38;101290.56;;;14.74;66.25
80699;BME280;70062;51.658;5.658;2023-07-13T00:55:06;101297.09;;;14.73;66.57
80699;BME280;70062;51.658;5.658;2023-07-13T00:57:32;101301.45;;;14.74;66.68
80699;BME280;70062;51.658;5.658;2023-07-13T01:00:01;101308.34;;;14.78;66.79
80699;BME280;70062;51.658;5.658;2023-07-13T01:02:43;101309.17;;;14.82;66.86
80699;BME280;70062;51.658;5.658;2023-07-13T01:05:15;101307.19;;;14.84;66.96
80699;BME280;70062;51.658;5.658;2023-07-13T01:07:42;101308.63;;;14.85;67.00
80699;BME280;70062;51.658;5.658;2023-07-13T01:10:10;101304.69;;;14.86;67.11
80699;BME280;70062;51.658;5.658;2023-07-13T01:12:35;101298.66;;;14.87;67.26
80699;BME280;70062;51.658;5.658;2023-07-13T01:15:03;101297.93;;;14.86;67.14
80699;BME280;70062;51.658;5.658;2023-07-13T01:17:31;101301.14;;;14.84;67.19
80699;BME280;70062;51.658;5.658;2023-07-13T01:19:58;101298.11;;;14.81;67.31
80699;BME280;70062;51.658;5.658;2023-07-13T01:22:24;101301.20;;;14.76;67.58
80699;BME280;70062;51.658;5.658;2023-07-13T01:24:52;101303.95;;;14.72;67.77
80699;BME280;70062;51.658;5.658;2023-07-13T01:27:23;101304.27;;;14.71;67.65
80699;BME280;70062;51.658;5.658;2023-07-13T01:29:50;101311.85;;;14.70;67.98
80699;BME280;70062;51.658;5.658;2023-07-13T01:32:20;101305.38;;;14.68;68.04
80699;BME280;70062;51.658;5.658;2023-07-13T01:34:48;101304.61;;;14.66;68.19
80699;BME280;70062;51.658;5.658;2023-07-13T01:37:13;101308.02;;;14.65;68.48
80699;BME280;70062;51.658;5.658;2023-07-13T01:39:39;101307.47;;;14.64;68.58
80699;BME280;70062;51.658;5.658;2023-07-13T01:42:05;101305.90;;;14.64;68.64
80699;BME280;70062;51.658;5.658;2023-07-13T01:44:31;101303.28;;;14.63;68.74
80699;BME280;70062;51.658;5.658;2023-07-13T01:47:00;101307.56;;;14.62;68.74
80699;BME280;70062;51.658;5.658;2023-07-13T01:49:26;101307.71;;;14.62;68.73
80699;BME280;70062;51.658;5.658;2023-07-13T01:51:52;101310.80;;;14.61;68.96
80699;BME280;70062;51.658;5.658;2023-07-13T01:54:17;101312.98;;;14.59;69.04
80699;BME280;70062;51.658;5.658;2023-07-13T01:56:42;101314.05;;;14.60;69.04
80699;BME280;70062;51.658;5.658;2023-07-13T01:59:09;101315.03;;;14.64;69.16
80699;BME280;70062;51.658;5.658;2023-07-13T02:01:34;101307.35;;;14.65;69.16
80699;BME280;70062;51.658;5.658;2023-07-13T02:04:00;101306.20;;;14.67;69.27
80699;BME280;70062;51.658;5.658;2023-07-13T02:06:25;101307.42;;;14.68;69.56
80699;BME280;70062;51.658;5.658;2023-07-13T02:08:51;101308.42;;;14.67;69.48
80699;BME280;70062;51.658;5.658;2023-07-13T02:11:16;101305.14;;;14.67;69.49
80699;BME280;70062;51.658;5.658;2023-07-13T02:13:42;101307.19;;;14.66;69.65
80699;BME280;70062;51.658;5.658;2023-07-13T02:16:09;101311.08;;;14.64;69.63
80699;BME280;70062;51.658;5.658;2023-07-13T02:18:34;101313.77;;;14.62;69.96
80699;BME280;70062;51.658;5.658;2023-07-13T02:21:00;101312.13;;;14.60;69.97
80699;BME280;70062;51.658;5.658;2023-07-13T02:23:25;101309.92;;;14.61;70.13
80699;BME280;70062;51.658;5.658;2023-07-13T02:25:58;101302.55;;;14.62;70.14
80699;BME280;70062;51.658;5.658;2023-07-13T02:28:23;101306.45;;;14.65;70.19
80699;BME280;70062;51.658;5.658;2023-07-13T02:30:49;101308.17;;;14.65;70.32
80699;BME280;70062;51.658;5.658;2023-07-13T02:33:14;101307.33;;;14.65;70.31
80699;BME280;70062;51.658;5.658;2023-07-13T02:35:40;101307.15;;;14.65;70.45
80699;BME280;70062;51.658;5.658;2023-07-13T02:38:06;101308.65;;;14.64;70.58
80699;BME280;70062;51.658;5.658;2023-07-13T02:40:32;101307.89;;;14.62;70.71
80699;BME280;70062;51.658;5.658;2023-07-13T02:42:59;101311.78;;;14.60;70.78
80699;BME280;70062;51.658;5.658;2023-07-13T02:45:25;101311.83;;;14.57;70.99
80699;BME280;70062;51.658;5.658;2023-07-13T02:47:50;101315.53;;;14.54;71.05
80699;BME280;70062;51.658;5.658;2023-07-13T02:50:16;101316.88;;;14.54;70.95
80699;BME280;70062;51.658;5.658;2023-07-13T02:52:41;101322.17;;;14.56;71.17
80699;BME280;70062;51.658;5.658;2023-07-13T02:55:07;101319.58;;;14.56;71.30
80699;BME280;70062;51.658;5.658;2023-07-13T02:57:33;101321.79;;;14.55;71.44
80699;BME280;70062;51.658;5.658;2023-07-13T02:59:59;101324.38;;;14.55;71.37
80699;BME280;70062;51.658;5.658;2023-07-13T03:02:25;101324.80;;;14.53;71.62
80699;BME280;70062;51.658;5.658;2023-07-13T03:04:50;101325.35;;;14.50;71.62
80699;BME280;70062;51.658;5.658;2023-07-13T03:07:16;101326.48;;;14.48;71.82
80699;BME280;70062;51.658;5.658;2023-07-13T03:09:41;101327.14;;;14.47;71.79
80699;BME280;70062;51.658;5.658;2023-07-13T03:12:07;101330.63;;;14.48;71.92
80699;BME280;70062;51.658;5.658;2023-07-13T03:14:32;101333.56;;;14.48;72.19
80699;BME280;70062;51.658;5.658;2023-07-13T03:16:58;101331.98;;;14.47;72.28
80699;BME280;70062;51.658;5.658;2023-07-13T03:19:23;101334.48;;;14.45;72.30
80699;BME280;70062;51.658;5.658;2023-07-13T03:21:49;101335.05;;;14.42;72.38
80699;BME280;70062;51.658;5.658;2023-07-13T03:24:14;101329.90;;;14.39;72.50
80699;BME280;70062;51.658;5.658;2023-07-13T03:26:40;101329.17;;;14.38;72.59
80699;BME280;70062;51.658;5.658;2023-07-13T03:29:06;101329.04;;;14.39;72.59
80699;BME280;70062;51.658;5.658;2023-07-13T03:31:34;101329.64;;;14.41;72.62
80699;BME280;70062;51.658;5.658;2023-07-13T03:34:00;101332.57;;;14.41;72.75
80699;BME280;70062;51.658;5.658;2023-07-13T03:36:28;101333.96;;;14.41;72.75
80699;BME280;70062;51.658;5.658;2023-07-13T03:38:58;101333.41;;;14.40;72.90
80699;BME280;70062;51.658;5.658;2023-07-13T03:41:24;101340.27;;;14.39;73.23
80699;BME280;70062;51.658;5.658;2023-07-13T03:43:50;101343.83;;;14.37;73.17
80699;BME280;70062;51.658;5.658;2023-07-13T03:46:17;101348.09;;;14.36;73.11
80699;BME280;70062;51.658;5.658;2023-07-13T03:48:44;101342.02;;;14.35;73.29
80699;BME280;70062;51.658;5.658;2023-07-13T03:51:11;101344.30;;;14.37;73.26
80699;BME280;70062;51.658;5.658;2023-07-13T03:53:40;101348.02;;;14.38;73.23
80699;BME280;70062;51.658;5.658;2023-07-13T03:56:07;101349.75;;;14.42;73.26
80699;BME280;70062;51.658;5.658;2023-07-13T03:58:40;101354.55;;;14.45;73.48
80699;BME280;70062;51.658;5.658;2023-07-13T04:01:07;101355.98;;;14.47;73.56
80699;BME280;70062;51.658;5.658;2023-07-13T04:03:34;101356.37;;;14.48;73.54
80699;BME280;70062;51.658;5.658;2023-07-13T04:06:00;101353.82;;;14.49;73.48
80699;BME280;70062;51.658;5.658;2023-07-13T04:08:31;101356.95;;;14.49;73.56
80699;BME280;70062;51.658;5.658;2023-07-13T04:10:57;101356.65;;;14.50;73.60
80699;BME280;70062;51.658;5.658;2023-07-13T04:13:24;101360.77;;;14.54;73.58
80699;BME280;70062;51.658;5.658;2023-07-13T04:15:50;101362.50;;;14.58;73.81
80699;BME280;70062;51.658;5.658;2023-07-13T04:18:16;101367.38;;;14.63;73.65
80699;BME280;70062;51.658;5.658;2023-07-13T04:20:41;101368.98;;;14.69;73.73
80699;BME280;70062;51.658;5.658;2023-07-13T04:23:07;101366.79;;;14.74;73.73
80699;BME280;70062;51.658;5.658;2023-07-13T04:25:32;101367.88;;;14.80;73.66
80699;BME280;70062;51.658;5.658;2023-07-13T04:27:58;101363.11;;;14.86;73.64
80699;BME280;70062;51.658;5.658;2023-07-13T04:30:24;101369.22;;;14.92;73.54
80699;BME280;70062;51.658;5.658;2023-07-13T04:32:52;101374.65;;;14.98;73.67
80699;BME280;70062;51.658;5.658;2023-07-13T04:35:21;101374.82;;;15.07;73.64
80699;BME280;70062;51.658;5.658;2023-07-13T04:37:49;101380.44;;;15.18;73.46
80699;BME280;70062;51.658;5.658;2023-07-13T04:40:16;101382.92;;;15.28;73.48
80699;BME280;70062;51.658;5.658;2023-07-13T04:42:42;101379.98;;;15.37;73.20
80699;BME280;70062;51.658;5.658;2023-07-13T04:45:08;101383.52;;;15.49;73.16
80699;BME280;70062;51.658;5.658;2023-07-13T04:47:33;101385.16;;;15.59;72.77
80699;BME280;70062;51.658;5.658;2023-07-13T04:49:59;101382.64;;;15.70;72.53
80699;BME280;70062;51.658;5.658;2023-07-13T04:52:24;101386.08;;;15.83;72.22
80699;BME280;70062;51.658;5.658;2023-07-13T04:54:50;101384.85;;;15.97;71.95
80699;BME280;70062;51.658;5.658;2023-07-13T04:57:15;101387.55;;;16.10;71.70
80699;BME280;70062;51.658;5.658;2023-07-13T04:59:41;101389.70;;;16.22;71.45
80699;BME280;70062;51.658;5.658;2023-07-13T05:02:06;101388.58;;;16.29;71.44
80699;BME280;70062;51.658;5.658;2023-07-13T05:04:32;101387.41;;;16.36;71.18
80699;BME280;70062;51.658;5.658;2023-07-13T05:06:59;101391.91;;;16.46;71.14
80699;BME280;70062;51.658;5.658;2023-07-13T05:09:24;101397.08;;;16.55;70.96
80699;BME280;70062;51.658;5.658;2023-07-13T05:11:50;101400.07;;;16.66;70.73
80699;BME280;70062;51.658;5.658;2023-07-13T05:14:15;101402.45;;;16.75;70.61
80699;BME280;70062;51.658;5.658;2023-07-13T05:16:41;101399.08;;;16.83;70.45
80699;BME280;70062;51.658;5.658;2023-07-13T05:19:08;101400.19;;;16.91;70.31
80699;BME280;70062;51.658;5.658;2023-07-13T05:21:33;101402.36;;;17.00;70.23
80699;BME280;70062;51.658;5.658;2023-07-13T05:23:59;101400.25;;;17.10;69.99
80699;BME280;70062;51.658;5.658;2023-07-13T05:26:24;101400.97;;;17.21;69.71
80699;BME280;70062;51.658;5.658;2023-07-13T05:28:49;101405.15;;;17.33;69.58
80699;BME280;70062;51.658;5.658;2023-07-13T05:31:15;101410.92;;;17.39;69.37
80699;BME280;70062;51.658;5.658;2023-07-13T05:33:41;101417.64;;;17.43;69.25
80699;BME280;70062;51.658;5.658;2023-07-13T05:36:06;101417.30;;;17.49;69.11
80699;BME280;70062;51.658;5.658;2023-07-13T05:38:32;101419.86;;;17.54;69.07
80699;BME280;70062;51.658;5.658;2023-07-13T05:40:58;101419.53;;;17.60;69.07
80699;BME280;70062;51.658;5.658;2023-07-13T05:43:24;101419.73;;;17.72;68.80
80699;BME280;70062;51.658;5.658;2023-07-13T05:45:53;101423.55;;;17.84;68.44
80699;BME280;70062;51.658;5.658;2023-07-13T05:48:22;101425.45;;;17.96;68.28
80699;BME280;70062;51.658;5.658;2023-07-13T05:50:48;101428.70;;;18.06;68.12
80699;BME280;70062;51.658;5.658;2023-07-13T05:53:14;101427.27;;;18.11;67.70
80699;BME280;70062;51.658;5.658;2023-07-13T05:55:44;101430.64;;;18.14;67.54
80699;BME280;70062;51.658;5.658;2023-07-13T05:58:13;101432.86;;;18.12;67.63
80699;BME280;70062;51.658;5.658;2023-07-13T06:00:39;101437.69;;;18.11;67.67
80699;BME280;70062;51.658;5.658;2023-07-13T06:03:05;101438.50;;;18.15;67.50
80699;BME280;70062;51.658;5.658;2023-07-13T06:05:32;101434.23;;;18.24;67.44
80699;BME280;70062;51.658;5.658;2023-07-13T06:07:59;101436.27;;;18.36;67.16
80699;BME280;70062;51.658;5.658;2023-07-13T06:10:24;101439.72;;;18.47;67.03
80699;BME280;70062;51.658;5.658;2023-07-13T06:12:50;101439.08;;;18.62;66.84
80699;BME280;70062;51.658;5.658;2023-07-13T06:15:15;101445.73;;;18.77;66.24
80699;BME280;70062;51.658;5.658;2023-07-13T06:17:41;101443.61;;;18.90;65.83
80699;BME280;70062;51.658;5.658;2023-07-13T06:20:07;101449.24;;;19.00;65.58
80699;BME280;70062;51.658;5.658;2023-07-13T06:22:32;101449.23;;;19.06;65.38
80699;BME280;70062;51.658;5.658;2023-07-13T06:24:58;101450.46;;;19.20;65.26
80699;BME280;70062;51.658;5.658;2023-07-13T06:27:23;101451.02;;;19.37;64.73
80699;BME280;70062;51.658;5.658;2023-07-13T06:29:49;101451.40;;;19.46;64.44
80699;BME280;70062;51.658;5.658;2023-07-13T06:32:14;101457.17;;;19.54;64.06
80699;BME280;70062;51.658;5.658;2023-07-13T06:34:40;101449.44;;;19.58;63.83
80699;BME280;70062;51.658;5.658;2023-07-13T06:37:05;101453.75;;;19.65;63.60
80699;BME280;70062;51.658;5.658;2023-07-13T06:39:32;101451.86;;;19.65;63.27
80699;BME280;70062;51.658;5.658;2023-07-13T06:41:57;101451.07;;;19.69;63.24
80699;BME280;70062;51.658;5.658;2023-07-13T06:44:23;101452.56;;;19.82;63.17
80699;BME280;70062;51.658;5.658;2023-07-13T06:46:48;101455.88;;;20.00;62.78
80699;BME280;70062;51.658;5.658;2023-07-13T06:49:13;101461.94;;;20.15;62.47
80699;BME280;70062;51.658;5.658;2023-07-13T06:51:39;101463.61;;;20.29;62.13
80699;BME280;70062;51.658;5.658;2023-07-13T06:54:04;101467.73;;;20.35;61.65
80699;BME280;70062;51.658;5.658;2023-07-13T06:56:30;101471.44;;;20.38;61.34
80699;BME280;70062;51.658;5.658;2023-07-13T06:58:55;101468.55;;;20.49;61.08
80699;BME280;70062;51.658;5.658;2023-07-13T07:01:21;101469.98;;;20.71;60.69
80699;BME280;70062;51.658;5.658;2023-07-13T07:03:46;101468.24;;;20.90;59.98
80699;BME280;70062;51.658;5.658;2023-07-13T07:06:17;101474.08;;;21.04;59.55
80699;BME280;70062;51.658;5.658;2023-07-13T07:08:43;101477.16;;;21.11;59.11
80699;BME280;70062;51.658;5.658;2023-07-13T07:11:14;101482.13;;;21.06;58.95
80699;BME280;70062;51.658;5.658;2023-07-13T07:13:39;101475.86;;;20.96;59.10
80699;BME280;70062;51.658;5.658;2023-07-13T07:16:05;101479.12;;;20.93;59.11
80699;BME280;70062;51.658;5.658;2023-07-13T07:18:30;101480.84;;;20.91;58.94
80699;BME280;70062;51.658;5.658;2023-07-13T07:20:56;101484.59;;;20.86;59.01
80699;BME280;70062;51.658;5.658;2023-07-13T07:23:21;101487.27;;;20.80;59.19
80699;BME280;70062;51.658;5.658;2023-07-13T07:25:47;101486.19;;;20.69;59.48
80699;BME280;70062;51.658;5.658;2023-07-13T07:28:15;101490.62;;;20.64;59.79
80699;BME280;70062;51.658;5.658;2023-07-13T07:30:44;101491.66;;;20.73;59.83
80699;BME280;70062;51.658;5.658;2023-07-13T07:33:09;101491.33;;;20.83;59.44
80699;BME280;70062;51.658;5.658;2023-07-13T07:35:34;101489.75;;;21.02;59.13
80699;BME280;70062;51.658;5.658;2023-07-13T07:38:00;101494.80;;;21.22;58.47
80699;BME280;70062;51.658;5.658;2023-07-13T07:40:25;101493.42;;;21.34;58.40
80699;BME280;70062;51.658;5.658;2023-07-13T07:42:51;101489.09;;;21.48;57.69
80699;BME280;70062;51.658;5.658;2023-07-13T07:45:18;101493.77;;;21.58;57.51
80699;BME280;70062;51.658;5.658;2023-07-13T07:47:44;101493.50;;;21.75;57.36
80699;BME280;70062;51.658;5.658;2023-07-13T07:50:10;101487.83;;;21.95;56.97
80699;BME280;70062;51.658;5.658;2023-07-13T07:52:35;101489.20;;;22.20;56.18
80699;BME280;70062;51.658;5.658;2023-07-13T07:55:01;101489.95;;;22.41;55.51
80699;BME280;70062;51.658;5.658;2023-07-13T07:57:26;101492.55;;;22.53;55.03
80699;BME280;70062;51.658;5.658;2023-07-13T07:59:51;101491.86;;;22.69;54.46
80699;BME280;70062;51.658;5.658;2023-07-13T08:02:17;101494.23;;;22.79;54.31
80699;BME280;70062;51.658;5.658;2023-07-13T08:04:42;101493.51;;;22.78;54.19
80699;BME280;70062;51.658;5.658;2023-07-13T08:07:09;101497.21;;;22.80;53.84
80699;BME280;70062;51.658;5.658;2023-07-13T08:09:34;101495.67;;;22.81;53.64
80699;BME280;70062;51.658;5.658;2023-07-13T08:12:00;101497.76;;;22.99;53.30
80699;BME280;70062;51.658;5.658;2023-07-13T08:14:26;101495.23;;;23.11;52.77
80699;BME280;70062;51.658;5.658;2023-07-13T08:16:51;101495.55;;;23.08;52.81
80699;BME280;70062;51.658;5.658;2023-07-13T08:19:16;101490.38;;;22.95;52.83
80699;BME280;70062;51.658;5.658;2023-07-13T08:21:42;101490.23;;;22.82;52.80
80699;BME280;70062;51.658;5.658;2023-07-13T08:24:09;101497.58;;;22.64;53.18
80699;BME280;70062;51.658;5.658;2023-07-13T08:26:34;101490.92;;;22.50;53.60
80699;BME280;70062;51.658;5.658;2023-07-13T08:29:00;101495.85;;;22.37;53.53
80699;BME280;70062;51.658;5.658;2023-07-13T08:31:25;101491.52;;;22.25;53.69
80699;BME280;70062;51.658;5.658;2023-07-13T08:33:50;101488.53;;;22.09;53.59
80699;BME280;70062;51.658;5.658;2023-07-13T08:36:16;101489.94;;;21.97;53.55
80699;BME280;70062;51.658;5.658;2023-07-13T08:38:42;101495.27;;;22.02;53.38
80699;BME280;70062;51.658;5.658;2023-07-13T08:41:13;101495.79;;;22.15;53.24
80699;BME280;70062;51.658;5.658;2023-07-13T08:43:39;101492.06;;;22.41;53.00
80699;BME280;70062;51.658;5.658;2023-07-13T08:46:28;101497.49;;;22.73;52.67
80699;BME280;70062;51.658;5.658;2023-07-13T08:49:02;101493.66;;;22.91;51.27
80699;BME280;70062;51.658;5.658;2023-07-13T08:54:00;101494.55;;;22.76;51.04
80699;BME280;70062;51.658;5.658;2023-07-13T08:56:29;101494.16;;;22.88;50.83
80699;BME280;70062;51.658;5.658;2023-07-13T08:59:06;101489.59;;;23.07;50.38
80699;BME280;70062;51.658;5.658;2023-07-13T09:04:21;101489.00;;;23.48;49.19
80699;BME280;70062;51.658;5.658;2023-07-13T09:09:42;101489.52;;;23.45;48.82
80699;BME280;70062;51.658;5.658;2023-07-13T09:14:59;101485.59;;;23.35;49.00
80699;BME280;70062;51.658;5.658;2023-07-13T09:17:29;101481.44;;;23.44;48.45
80699;BME280;70062;51.658;5.658;2023-07-13T09:20:03;101477.25;;;23.46;47.29
80699;BME280;70062;51.658;5.658;2023-07-13T09:22:36;101478.02;;;23.54;47.29
80699;BME280;70062;51.658;5.658;2023-07-13T09:27:53;101477.56;;;24.04;46.14
80699;BME280;70062;51.658;5.658;2023-07-13T09:31:19;101480.22;;;24.48;45.32
80699;BME280;70062;51.658;5.658;2023-07-13T09:33:20;101473.59;;;24.91;44.14
80699;BME280;70062;51.658;5.658;2023-07-13T09:35:45;101476.77;;;25.23;43.57
80699;BME280;70062;51.658;5.658;2023-07-13T09:43:20;101477.02;;;25.74;42.28
80699;BME280;70062;51.658;5.658;2023-07-13T09:45:46;101467.95;;;25.99;41.74
80699;BME280;70062;51.658;5.658;2023-07-13T09:48:16;101469.34;;;26.10;41.19
80699;BME280;70062;51.658;5.658;2023-07-13T09:50:43;101479.54;;;26.11;41.11
80699;BME280;70062;51.658;5.658;2023-07-13T09:53:14;101480.20;;;26.18;41.31
80699;BME280;70062;51.658;5.658;2023-07-13T09:55:42;101480.66;;;26.32;40.56
80699;BME280;70062;51.658;5.658;2023-07-13T10:00:37;101480.38;;;26.19;39.95
80699;BME280;70062;51.658;5.658;2023-07-13T10:03:51;101471.96;;;26.10;40.60
80699;BME280;70062;51.658;5.658;2023-07-13T10:05:51;101478.05;;;26.25;39.93
80699;BME280;70062;51.658;5.658;2023-07-13T10:11:26;101478.39;;;26.30;40.32
80699;BME280;70062;51.658;5.658;2023-07-13T10:16:14;101485.92;;;26.66;39.08
80699;BME280;70062;51.658;5.658;2023-07-13T10:18:46;101486.27;;;26.67;39.07
80699;BME280;70062;51.658;5.658;2023-07-13T10:21:20;101482.11;;;26.81;39.00
80699;BME280;70062;51.658;5.658;2023-07-13T10:23:56;101481.10;;;27.19;39.01
80699;BME280;70062;51.658;5.658;2023-07-13T10:26:26;101481.52;;;27.30;37.18
80699;BME280;70062;51.658;5.658;2023-07-13T10:28:56;101483.09;;;27.49;36.93
80699;BME280;70062;51.658;5.658;2023-07-13T10:31:23;101480.55;;;27.75;37.10
80699;BME280;70062;51.658;5.658;2023-07-13T10:33:49;101483.34;;;28.07;36.45
80699;BME280;70062;51.658;5.658;2023-07-13T10:36:35;101485.77;;;28.25;35.16
80699;BME280;70062;51.658;5.658;2023-07-13T10:39:05;101491.06;;;28.27;34.94
80699;BME280;70062;51.658;5.658;2023-07-13T10:41:35;101501.45;;;28.13;36.40
80699;BME280;70062;51.658;5.658;2023-07-13T10:44:04;101498.14;;;27.95;38.08
80699;BME280;70062;51.658;5.658;2023-07-13T10:46:30;101504.85;;;27.80;37.02
80699;BME280;70062;51.658;5.658;2023-07-13T10:49:02;101498.09;;;27.68;36.72
80699;BME280;70062;51.658;5.658;2023-07-13T10:51:30;101498.67;;;27.62;36.53
80699;BME280;70062;51.658;5.658;2023-07-13T10:54:21;101502.83;;;27.51;36.72
80699;BME280;70062;51.658;5.658;2023-07-13T10:56:52;101507.70;;;27.39;36.40
80699;BME280;70062;51.658;5.658;2023-07-13T10:59:24;101500.98;;;27.58;36.79
80699;BME280;70062;51.658;5.658;2023-07-13T11:02:11;101501.56;;;27.74;36.60
80699;BME280;70062;51.658;5.658;2023-07-13T11:04:43;101506.14;;;27.37;36.52
80699;BME280;70062;51.658;5.658;2023-07-13T11:07:18;101511.52;;;26.82;36.62
80699;BME280;70062;51.658;5.658;2023-07-13T11:09:50;101522.60;;;26.22;38.22
80699;BME280;70062;51.658;5.658;2023-07-13T11:19:54;101544.68;;;27.02;37.34
80699;BME280;70062;51.658;5.658;2023-07-13T11:22:42;101542.17;;;27.50;37.04
80699;BME280;70062;51.658;5.658;2023-07-13T11:25:26;101555.23;;;27.49;38.05
80699;BME280;70062;51.658;5.658;2023-07-13T11:28:24;101558.60;;;26.74;39.07
80699;BME280;70062;51.658;5.658;2023-07-13T11:33:23;101550.18;;;24.98;41.87
80699;BME280;70062;51.658;5.658;2023-07-13T11:38:34;101566.69;;;24.07;44.26
80699;BME280;70062;51.658;5.658;2023-07-13T11:41:05;101581.79;;;23.36;46.69
80699;BME280;70062;51.658;5.658;2023-07-13T11:43:31;101592.00;;;22.58;49.34
80699;BME280;70062;51.658;5.658;2023-07-13T11:46:11;101595.30;;;21.82;54.55
80699;BME280;70062;51.658;5.658;2023-07-13T11:48:37;101588.70;;;21.01;57.73
80699;BME280;70062;51.658;5.658;2023-07-13T11:51:04;101572.27;;;20.64;58.57
80699;BME280;70062;51.658;5.658;2023-07-13T11:53:45;101574.23;;;20.57;58.45
80699;BME280;70062;51.658;5.658;2023-07-13T11:56:11;101567.23;;;20.56;59.31
80699;BME280;70062;51.658;5.658;2023-07-13T11:58:37;101566.55;;;20.66;59.77
80699;BME280;70062;51.658;5.658;2023-07-13T12:01:03;101566.48;;;20.89;59.84
80699;BME280;70062;51.658;5.658;2023-07-13T12:03:32;101565.92;;;20.96;60.13
80699;BME280;70062;51.658;5.658;2023-07-13T12:06:06;101559.69;;;20.99;60.38
80699;BME280;70062;51.658;5.658;2023-07-13T12:08:43;101559.64;;;21.16;60.91
80699;BME280;70062;51.658;5.658;2023-07-13T12:11:16;101553.83;;;21.32;60.59
80699;BME280;70062;51.658;5.658;2023-07-13T12:13:43;101552.36;;;21.50;61.47
80699;BME280;70062;51.658;5.658;2023-07-13T12:16:35;101555.85;;;21.72;60.74
80699;BME280;70062;51.658;5.658;2023-07-13T12:19:03;101552.58;;;22.01;60.04
80699;BME280;70062;51.658;5.658;2023-07-13T12:21:36;101545.67;;;22.47;59.88
80699;BME280;70062;51.658;5.658;2023-07-13T12:24:14;101548.05;;;23.04;57.53
80699;BME280;70062;51.658;5.658;2023-07-13T12:26:40;101544.92;;;23.74;55.26
80699;BME280;70062;51.658;5.658;2023-07-13T12:29:07;101537.46;;;24.68;54.65
80699;BME280;70062;51.658;5.658;2023-07-13T12:31:39;101540.00;;;25.43;51.78
80699;BME280;70062;51.658;5.658;2023-07-13T12:36:54;101527.38;;;26.16;48.21
80699;BME280;70062;51.658;5.658;2023-07-13T12:39:37;101533.77;;;26.74;47.58
80699;BME280;70062;51.658;5.658;2023-07-13T12:42:23;101534.78;;;26.82;44.43
80699;BME280;70062;51.658;5.658;2023-07-13T12:45:01;101539.02;;;27.04;44.18
80699;BME280;70062;51.658;5.658;2023-07-13T12:47:27;101529.95;;;28.18;41.79
80699;BME280;70062;51.658;5.658;2023-07-13T12:49:57;101528.34;;;29.67;39.56
80699;BME280;70062;51.658;5.658;2023-07-13T12:52:33;101522.39;;;31.59;35.48
80699;BME280;70062;51.658;5.658;2023-07-13T12:55:09;101527.40;;;32.73;32.57
80699;BME280;70062;51.658;5.658;2023-07-13T12:57:53;101524.55;;;32.63;32.36
80699;BME280;70062;51.658;5.658;2023-07-13T13:00:29;101530.38;;;32.81;31.76
80699;BME280;70062;51.658;5.658;2023-07-13T13:03:00;101523.70;;;32.14;30.66
80699;BME280;70062;51.658;5.658;2023-07-13T13:05:29;101533.09;;;31.03;30.08
80699;BME280;70062;51.658;5.658;2023-07-13T13:07:55;101533.75;;;30.01;30.82
80699;BME280;70062;51.658;5.658;2023-07-13T13:10:21;101529.83;;;29.58;30.82
80699;BME280;70062;51.658;5.658;2023-07-13T13:12:47;101536.91;;;29.24;31.47
80699;BME280;70062;51.658;5.658;2023-07-13T13:15:13;101535.77;;;29.87;30.93
80699;BME280;70062;51.658;5.658;2023-07-13T13:17:39;101523.39;;;31.54;28.60
80699;BME280;70062;51.658;5.658;2023-07-13T13:20:14;101520.29;;;33.37;27.57
80699;BME280;70062;51.658;5.658;2023-07-13T13:22:41;101520.73;;;33.90;26.49
80699;BME280;70062;51.658;5.658;2023-07-13T13:25:10;101526.11;;;32.97;26.46
80699;BME280;70062;51.658;5.658;2023-07-13T13:27:36;101526.89;;;31.84;27.69
80699;BME280;70062;51.658;5.658;2023-07-13T13:30:02;101537.39;;;30.69;28.51
80699;BME280;70062;51.658;5.658;2023-07-13T13:32:28;101541.63;;;29.58;30.17
80699;BME280;70062;51.658;5.658;2023-07-13T13:34:53;101541.92;;;28.76;31.61
80699;BME280;70062;51.658;5.658;2023-07-13T13:37:21;101543.81;;;27.98;32.41
80699;BME280;70062;51.658;5.658;2023-07-13T13:39:47;101550.50;;;27.24;33.41